sensor_id;sensor_type;location;lat;lon;timestamp;P1;durP1;ratioP1;P2;durP2;ratioP2
37483;SDS011;23337;52.212;9.926;2023-04-29T00:01:35;12.40;;;11.17;;
37483;SDS011;23337;52.212;9.926;2023-04-29T00:04:01;13.27;;;11.40;;
37483;SDS011;23337;52.212;9.926;2023-04-29T00:06:27;15.57;;;12.70;;
37483;SDS011;23337;52.212;9.926;2023-04-29T00:08:53;14.20;;;12.63;;
37483;SDS011;23337;52.212;9.926;2023-04-29T00:11:19;16.47;;;14.77;;
37483;SDS011;23337;52.212;9.926;2023-04-29T00:13:45;15.17;;;13.57;;
37483;SDS011;23337;52.212;9.926;2023-04-29T00:16:11;17.50;;;14.67;;
37483;SDS011;23337;52.212;9.926;2023-04-29T00:18:37;15.40;;;13.80;;
37483;SDS011;23337;52.212;9.926;2023-04-29T00:21:04;16.73;;;14.90;;
37483;SDS011;23337;52.212;9.926;2023-04-29T00:23:30;15.83;;;13.87;;
37483;SDS011;23337;52.212;9.926;2023-04-29T00:25:56;17.03;;;14.00;;
37483;SDS011;23337;52.212;9.926;2023-04-29T00:28:22;16.67;;;13.77;;
37483;SDS011;23337;52.212;9.926;2023-04-29T00:30:48;17.77;;;15.53;;
37483;SDS011;23337;52.212;9.926;2023-04-29T00:33:14;17.67;;;14.33;;
37483;SDS011;23337;52.212;9.926;2023-04-29T00:35:40;19.17;;;14.73;;
37483;SDS011;23337;52.212;9.926;2023-04-29T00:38:06;17.50;;;15.63;;
37483;SDS011;23337;52.212;9.926;2023-04-29T00:40:32;22.57;;;17.23;;
37483;SDS011;23337;52.212;9.926;2023-04-29T00:42:58;18.17;;;15.80;;
37483;SDS011;23337;52.212;9.926;2023-04-29T00:45:24;21.23;;;17.00;;
37483;SDS011;23337;52.212;9.926;2023-04-29T00:47:51;22.20;;;18.27;;
37483;SDS011;23337;52.212;9.926;2023-04-29T00:50:17;24.03;;;19.50;;
37483;SDS011;23337;52.212;9.926;2023-04-29T00:52:43;25.73;;;20.10;;
37483;SDS011;23337;52.212;9.926;2023-04-29T00:55:10;26.43;;;21.57;;
37483;SDS011;23337;52.212;9.926;2023-04-29T00:57:37;28.00;;;20.83;;
37483;SDS011;23337;52.212;9.926;2023-04-29T01:00:03;24.67;;;20.83;;
37483;SDS011;23337;52.212;9.926;2023-04-29T01:02:29;31.20;;;22.33;;
37483;SDS011;23337;52.212;9.926;2023-04-29T01:04:55;28.27;;;22.77;;
37483;SDS011;23337;52.212;9.926;2023-04-29T01:09:52;30.30;;;22.40;;
37483;SDS011;23337;52.212;9.926;2023-04-29T01:12:23;30.30;;;22.53;;
37483;SDS011;23337;52.212;9.926;2023-04-29T01:15:01;27.97;;;21.23;;
37483;SDS011;23337;52.212;9.926;2023-04-29T01:17:30;26.17;;;21.10;;
37483;SDS011;23337;52.212;9.926;2023-04-29T01:19:56;34.00;;;23.37;;
37483;SDS011;23337;52.212;9.926;2023-04-29T01:22:23;30.27;;;21.20;;
37483;SDS011;23337;52.212;9.926;2023-04-29T01:24:49;31.83;;;23.60;;
37483;SDS011;23337;52.212;9.926;2023-04-29T01:27:31;30.80;;;22.13;;
37483;SDS011;23337;52.212;9.926;2023-04-29T01:29:59;30.97;;;22.07;;
37483;SDS011;23337;52.212;9.926;2023-04-29T01:35:01;32.13;;;23.60;;
37483;SDS011;23337;52.212;9.926;2023-04-29T01:37:32;32.50;;;21.67;;
37483;SDS011;23337;52.212;9.926;2023-04-29T01:42:38;31.57;;;21.83;;
37483;SDS011;23337;52.212;9.926;2023-04-29T01:45:05;29.23;;;21.43;;
37483;SDS011;23337;52.212;9.926;2023-04-29T01:47:31;33.60;;;21.60;;
37483;SDS011;23337;52.212;9.926;2023-04-29T01:49:57;30.70;;;21.63;;
37483;SDS011;23337;52.212;9.926;2023-04-29T01:52:23;32.30;;;21.30;;
37483;SDS011;23337;52.212;9.926;2023-04-29T01:54:49;30.37;;;21.57;;
37483;SDS011;23337;52.212;9.926;2023-04-29T01:57:15;32.03;;;21.50;;
37483;SDS011;23337;52.212;9.926;2023-04-29T01:59:41;30.07;;;22.00;;
37483;SDS011;23337;52.212;9.926;2023-04-29T02:02:07;29.73;;;20.90;;
37483;SDS011;23337;52.212;9.926;2023-04-29T02:04:34;25.13;;;19.80;;
37483;SDS011;23337;52.212;9.926;2023-04-29T02:07:00;31.17;;;19.97;;
37483;SDS011;23337;52.212;9.926;2023-04-29T02:09:27;28.57;;;20.17;;
37483;SDS011;23337;52.212;9.926;2023-04-29T02:11:53;29.37;;;21.23;;
37483;SDS011;23337;52.212;9.926;2023-04-29T02:14:19;30.97;;;20.53;;
37483;SDS011;23337;52.212;9.926;2023-04-29T02:16:45;27.53;;;20.23;;
37483;SDS011;23337;52.212;9.926;2023-04-29T02:19:11;31.27;;;21.37;;
37483;SDS011;23337;52.212;9.926;2023-04-29T02:21:37;27.53;;;19.33;;
37483;SDS011;23337;52.212;9.926;2023-04-29T02:24:04;28.17;;;19.87;;
37483;SDS011;23337;52.212;9.926;2023-04-29T02:26:30;27.80;;;19.63;;
37483;SDS011;23337;52.212;9.926;2023-04-29T02:28:58;27.67;;;19.30;;
37483;SDS011;23337;52.212;9.926;2023-04-29T02:31:23;24.30;;;18.40;;
37483;SDS011;23337;52.212;9.926;2023-04-29T02:33:50;24.73;;;19.10;;
37483;SDS011;23337;52.212;9.926;2023-04-29T02:36:16;26.77;;;19.00;;
37483;SDS011;23337;52.212;9.926;2023-04-29T02:38:42;24.30;;;18.73;;
37483;SDS011;23337;52.212;9.926;2023-04-29T02:41:08;27.27;;;19.70;;
37483;SDS011;23337;52.212;9.926;2023-04-29T02:43:34;27.23;;;18.90;;
37483;SDS011;23337;52.212;9.926;2023-04-29T02:46:00;24.77;;;18.83;;
37483;SDS011;23337;52.212;9.926;2023-04-29T02:48:26;25.53;;;17.70;;
37483;SDS011;23337;52.212;9.926;2023-04-29T02:50:52;28.83;;;19.27;;
37483;SDS011;23337;52.212;9.926;2023-04-29T02:53:18;25.27;;;18.80;;
37483;SDS011;23337;52.212;9.926;2023-04-29T02:55:44;27.40;;;20.00;;
37483;SDS011;23337;52.212;9.926;2023-04-29T02:58:11;25.43;;;17.30;;
37483;SDS011;23337;52.212;9.926;2023-04-29T03:00:37;22.17;;;17.87;;
37483;SDS011;23337;52.212;9.926;2023-04-29T03:03:05;21.77;;;16.70;;
37483;SDS011;23337;52.212;9.926;2023-04-29T03:05:31;23.40;;;16.40;;
37483;SDS011;23337;52.212;9.926;2023-04-29T03:07:57;19.27;;;15.27;;
37483;SDS011;23337;52.212;9.926;2023-04-29T03:10:23;15.57;;;13.37;;
37483;SDS011;23337;52.212;9.926;2023-04-29T03:12:48;16.53;;;12.90;;
37483;SDS011;23337;52.212;9.926;2023-04-29T03:15:14;12.80;;;10.93;;
37483;SDS011;23337;52.212;9.926;2023-04-29T03:17:41;14.10;;;10.60;;
37483;SDS011;23337;52.212;9.926;2023-04-29T03:20:07;11.63;;;9.83;;
37483;SDS011;23337;52.212;9.926;2023-04-29T03:22:34;13.97;;;11.20;;
37483;SDS011;23337;52.212;9.926;2023-04-29T03:25:01;16.60;;;13.10;;
37483;SDS011;23337;52.212;9.926;2023-04-29T03:27:26;19.23;;;14.00;;
37483;SDS011;23337;52.212;9.926;2023-04-29T03:29:53;16.93;;;13.53;;
37483;SDS011;23337;52.212;9.926;2023-04-29T03:32:19;19.57;;;14.60;;
37483;SDS011;23337;52.212;9.926;2023-04-29T03:34:44;18.77;;;14.43;;
37483;SDS011;23337;52.212;9.926;2023-04-29T03:37:10;19.03;;;16.13;;
37483;SDS011;23337;52.212;9.926;2023-04-29T03:39:36;20.73;;;17.80;;
37483;SDS011;23337;52.212;9.926;2023-04-29T03:42:02;22.13;;;17.30;;
37483;SDS011;23337;52.212;9.926;2023-04-29T03:44:28;22.27;;;17.43;;
37483;SDS011;23337;52.212;9.926;2023-04-29T03:46:54;25.07;;;20.13;;
37483;SDS011;23337;52.212;9.926;2023-04-29T03:49:20;25.30;;;19.43;;
37483;SDS011;23337;52.212;9.926;2023-04-29T03:51:47;25.27;;;21.47;;
37483;SDS011;23337;52.212;9.926;2023-04-29T03:54:13;25.03;;;20.20;;
37483;SDS011;23337;52.212;9.926;2023-04-29T03:56:39;28.27;;;20.50;;
37483;SDS011;23337;52.212;9.926;2023-04-29T03:59:05;24.70;;;20.63;;
37483;SDS011;23337;52.212;9.926;2023-04-29T04:01:31;23.57;;;20.87;;
37483;SDS011;23337;52.212;9.926;2023-04-29T04:03:57;23.90;;;20.53;;
37483;SDS011;23337;52.212;9.926;2023-04-29T04:06:23;25.43;;;20.97;;
37483;SDS011;23337;52.212;9.926;2023-04-29T04:08:50;22.13;;;18.97;;
37483;SDS011;23337;52.212;9.926;2023-04-29T04:11:16;25.13;;;20.43;;
37483;SDS011;23337;52.212;9.926;2023-04-29T04:13:42;21.70;;;19.50;;
37483;SDS011;23337;52.212;9.926;2023-04-29T04:16:10;23.77;;;21.23;;
37483;SDS011;23337;52.212;9.926;2023-04-29T04:18:37;23.30;;;20.77;;
37483;SDS011;23337;52.212;9.926;2023-04-29T04:21:07;23.20;;;20.70;;
37483;SDS011;23337;52.212;9.926;2023-04-29T04:23:33;21.33;;;19.03;;
37483;SDS011;23337;52.212;9.926;2023-04-29T04:25:59;25.67;;;22.30;;
37483;SDS011;23337;52.212;9.926;2023-04-29T04:28:24;23.30;;;20.90;;
37483;SDS011;23337;52.212;9.926;2023-04-29T04:30:50;23.70;;;20.90;;
37483;SDS011;23337;52.212;9.926;2023-04-29T04:33:16;23.23;;;20.73;;
37483;SDS011;23337;52.212;9.926;2023-04-29T04:35:43;24.97;;;22.10;;
37483;SDS011;23337;52.212;9.926;2023-04-29T04:38:09;27.20;;;22.97;;
37483;SDS011;23337;52.212;9.926;2023-04-29T04:40:42;30.33;;;23.97;;
37483;SDS011;23337;52.212;9.926;2023-04-29T04:43:08;31.80;;;26.77;;
37483;SDS011;23337;52.212;9.926;2023-04-29T04:45:34;27.23;;;24.03;;
37483;SDS011;23337;52.212;9.926;2023-04-29T04:48:00;29.00;;;23.13;;
37483;SDS011;23337;52.212;9.926;2023-04-29T04:50:27;28.87;;;23.80;;
37483;SDS011;23337;52.212;9.926;2023-04-29T04:52:54;30.10;;;24.20;;
37483;SDS011;23337;52.212;9.926;2023-04-29T04:55:20;28.90;;;24.80;;
37483;SDS011;23337;52.212;9.926;2023-04-29T04:57:46;30.27;;;25.17;;
37483;SDS011;23337;52.212;9.926;2023-04-29T05:00:12;28.20;;;23.27;;
37483;SDS011;23337;52.212;9.926;2023-04-29T05:02:38;32.00;;;25.63;;
37483;SDS011;23337;52.212;9.926;2023-04-29T05:05:04;30.73;;;25.03;;
37483;SDS011;23337;52.212;9.926;2023-04-29T05:07:31;35.73;;;26.00;;
37483;SDS011;23337;52.212;9.926;2023-04-29T05:09:59;38.40;;;28.73;;
37483;SDS011;23337;52.212;9.926;2023-04-29T05:12:26;37.97;;;28.97;;
37483;SDS011;23337;52.212;9.926;2023-04-29T05:14:54;34.13;;;27.13;;
37483;SDS011;23337;52.212;9.926;2023-04-29T05:17:20;34.13;;;27.07;;
37483;SDS011;23337;52.212;9.926;2023-04-29T05:19:46;36.10;;;28.17;;
37483;SDS011;23337;52.212;9.926;2023-04-29T05:22:12;36.70;;;28.60;;
37483;SDS011;23337;52.212;9.926;2023-04-29T05:24:38;36.20;;;28.90;;
37483;SDS011;23337;52.212;9.926;2023-04-29T05:27:04;43.87;;;30.77;;
37483;SDS011;23337;52.212;9.926;2023-04-29T05:29:30;42.40;;;30.23;;
37483;SDS011;23337;52.212;9.926;2023-04-29T05:31:56;44.80;;;32.73;;
37483;SDS011;23337;52.212;9.926;2023-04-29T05:34:22;45.37;;;32.77;;
37483;SDS011;23337;52.212;9.926;2023-04-29T05:36:48;46.27;;;34.23;;
37483;SDS011;23337;52.212;9.926;2023-04-29T05:39:14;50.33;;;37.43;;
37483;SDS011;23337;52.212;9.926;2023-04-29T05:41:41;52.23;;;35.83;;
37483;SDS011;23337;52.212;9.926;2023-04-29T05:44:07;51.47;;;37.23;;
37483;SDS011;23337;52.212;9.926;2023-04-29T05:46:33;52.70;;;36.47;;
37483;SDS011;23337;52.212;9.926;2023-04-29T05:48:59;50.70;;;36.93;;
37483;SDS011;23337;52.212;9.926;2023-04-29T05:51:25;50.97;;;36.93;;
37483;SDS011;23337;52.212;9.926;2023-04-29T05:53:52;51.27;;;37.07;;
37483;SDS011;23337;52.212;9.926;2023-04-29T05:56:18;51.10;;;36.90;;
37483;SDS011;23337;52.212;9.926;2023-04-29T05:58:44;53.03;;;38.43;;
37483;SDS011;23337;52.212;9.926;2023-04-29T06:01:10;50.47;;;36.43;;
37483;SDS011;23337;52.212;9.926;2023-04-29T06:03:36;47.00;;;33.83;;
37483;SDS011;23337;52.212;9.926;2023-04-29T06:06:02;50.20;;;36.40;;
37483;SDS011;23337;52.212;9.926;2023-04-29T06:08:28;49.37;;;37.00;;
37483;SDS011;23337;52.212;9.926;2023-04-29T06:10:54;52.83;;;37.30;;
37483;SDS011;23337;52.212;9.926;2023-04-29T06:13:20;49.90;;;35.33;;
37483;SDS011;23337;52.212;9.926;2023-04-29T06:15:46;47.70;;;34.27;;
37483;SDS011;23337;52.212;9.926;2023-04-29T06:18:12;43.60;;;30.33;;
37483;SDS011;23337;52.212;9.926;2023-04-29T06:20:38;40.67;;;31.63;;
37483;SDS011;23337;52.212;9.926;2023-04-29T06:23:04;38.40;;;30.97;;
37483;SDS011;23337;52.212;9.926;2023-04-29T06:25:31;42.47;;;32.57;;
37483;SDS011;23337;52.212;9.926;2023-04-29T06:27:57;42.13;;;31.90;;
37483;SDS011;23337;52.212;9.926;2023-04-29T06:30:23;38.87;;;29.83;;
37483;SDS011;23337;52.212;9.926;2023-04-29T06:32:49;37.87;;;29.83;;
37483;SDS011;23337;52.212;9.926;2023-04-29T06:35:15;42.10;;;31.40;;
37483;SDS011;23337;52.212;9.926;2023-04-29T06:37:41;40.80;;;30.27;;
37483;SDS011;23337;52.212;9.926;2023-04-29T06:40:07;36.43;;;28.83;;
37483;SDS011;23337;52.212;9.926;2023-04-29T06:42:33;39.30;;;29.90;;
37483;SDS011;23337;52.212;9.926;2023-04-29T06:45:00;35.57;;;27.53;;
37483;SDS011;23337;52.212;9.926;2023-04-29T06:47:26;36.47;;;28.67;;
37483;SDS011;23337;52.212;9.926;2023-04-29T06:49:52;35.03;;;27.30;;
37483;SDS011;23337;52.212;9.926;2023-04-29T06:52:18;35.97;;;27.43;;
37483;SDS011;23337;52.212;9.926;2023-04-29T06:54:44;36.03;;;26.97;;
37483;SDS011;23337;52.212;9.926;2023-04-29T06:57:10;37.70;;;26.40;;
37483;SDS011;23337;52.212;9.926;2023-04-29T06:59:36;35.90;;;25.47;;
37483;SDS011;23337;52.212;9.926;2023-04-29T07:02:02;33.90;;;25.83;;
37483;SDS011;23337;52.212;9.926;2023-04-29T07:04:28;32.60;;;25.23;;
37483;SDS011;23337;52.212;9.926;2023-04-29T07:06:54;32.93;;;25.47;;
37483;SDS011;23337;52.212;9.926;2023-04-29T07:09:20;35.33;;;25.70;;
37483;SDS011;23337;52.212;9.926;2023-04-29T07:11:47;31.33;;;24.43;;
37483;SDS011;23337;52.212;9.926;2023-04-29T07:14:13;33.33;;;25.43;;
37483;SDS011;23337;52.212;9.926;2023-04-29T07:16:40;30.17;;;24.03;;
37483;SDS011;23337;52.212;9.926;2023-04-29T07:19:06;29.33;;;24.20;;
37483;SDS011;23337;52.212;9.926;2023-04-29T07:21:32;29.03;;;23.00;;
37483;SDS011;23337;52.212;9.926;2023-04-29T07:23:58;28.30;;;22.10;;
37483;SDS011;23337;52.212;9.926;2023-04-29T07:26:26;30.90;;;24.47;;
37483;SDS011;23337;52.212;9.926;2023-04-29T07:28:52;30.93;;;23.30;;
37483;SDS011;23337;52.212;9.926;2023-04-29T07:31:18;23.43;;;20.93;;
37483;SDS011;23337;52.212;9.926;2023-04-29T07:33:45;28.20;;;23.13;;
37483;SDS011;23337;52.212;9.926;2023-04-29T07:36:11;29.10;;;22.97;;
37483;SDS011;23337;52.212;9.926;2023-04-29T07:38:37;26.90;;;21.37;;
37483;SDS011;23337;52.212;9.926;2023-04-29T07:41:04;26.87;;;23.03;;
37483;SDS011;23337;52.212;9.926;2023-04-29T07:43:30;24.00;;;21.40;;
37483;SDS011;23337;52.212;9.926;2023-04-29T07:45:56;25.07;;;19.60;;
37483;SDS011;23337;52.212;9.926;2023-04-29T07:48:22;23.10;;;19.63;;
37483;SDS011;23337;52.212;9.926;2023-04-29T07:50:48;21.43;;;18.67;;
37483;SDS011;23337;52.212;9.926;2023-04-29T07:53:14;22.30;;;17.57;;
37483;SDS011;23337;52.212;9.926;2023-04-29T07:55:41;21.40;;;18.37;;
37483;SDS011;23337;52.212;9.926;2023-04-29T07:58:07;18.63;;;16.73;;
37483;SDS011;23337;52.212;9.926;2023-04-29T08:00:33;19.90;;;16.80;;
37483;SDS011;23337;52.212;9.926;2023-04-29T08:02:59;20.60;;;18.37;;
37483;SDS011;23337;52.212;9.926;2023-04-29T08:05:25;19.67;;;17.53;;
37483;SDS011;23337;52.212;9.926;2023-04-29T08:07:51;19.93;;;16.03;;
37483;SDS011;23337;52.212;9.926;2023-04-29T08:10:17;20.47;;;16.93;;
37483;SDS011;23337;52.212;9.926;2023-04-29T08:12:47;17.40;;;15.60;;
37483;SDS011;23337;52.212;9.926;2023-04-29T08:15:13;16.57;;;14.77;;
37483;SDS011;23337;52.212;9.926;2023-04-29T08:17:39;19.50;;;17.60;;
37483;SDS011;23337;52.212;9.926;2023-04-29T08:20:06;17.97;;;15.93;;
37483;SDS011;23337;52.212;9.926;2023-04-29T08:22:32;18.27;;;16.47;;
37483;SDS011;23337;52.212;9.926;2023-04-29T08:24:58;18.60;;;16.60;;
37483;SDS011;23337;52.212;9.926;2023-04-29T08:27:24;20.20;;;18.23;;
37483;SDS011;23337;52.212;9.926;2023-04-29T08:29:51;17.50;;;15.70;;
37483;SDS011;23337;52.212;9.926;2023-04-29T08:32:17;16.53;;;14.87;;
37483;SDS011;23337;52.212;9.926;2023-04-29T08:34:43;17.30;;;15.40;;
37483;SDS011;23337;52.212;9.926;2023-04-29T08:37:09;18.63;;;15.77;;
37483;SDS011;23337;52.212;9.926;2023-04-29T08:39:35;15.87;;;14.27;;
37483;SDS011;23337;52.212;9.926;2023-04-29T08:42:08;15.47;;;14.03;;
37483;SDS011;23337;52.212;9.926;2023-04-29T08:44:34;14.67;;;13.17;;
37483;SDS011;23337;52.212;9.926;2023-04-29T08:47:01;15.50;;;12.53;;
37483;SDS011;23337;52.212;9.926;2023-04-29T08:49:30;14.77;;;13.00;;
37483;SDS011;23337;52.212;9.926;2023-04-29T08:52:02;14.50;;;12.53;;
37483;SDS011;23337;52.212;9.926;2023-04-29T08:54:28;12.47;;;11.27;;
37483;SDS011;23337;52.212;9.926;2023-04-29T08:56:54;12.30;;;11.03;;
37483;SDS011;23337;52.212;9.926;2023-04-29T08:59:20;13.07;;;11.93;;
37483;SDS011;23337;52.212;9.926;2023-04-29T09:01:47;12.90;;;10.73;;
37483;SDS011;23337;52.212;9.926;2023-04-29T09:04:31;11.53;;;10.40;;
37483;SDS011;23337;52.212;9.926;2023-04-29T09:07:02;12.93;;;11.73;;
37483;SDS011;23337;52.212;9.926;2023-04-29T09:09:28;11.83;;;10.67;;
37483;SDS011;23337;52.212;9.926;2023-04-29T09:11:55;11.63;;;10.47;;
37483;SDS011;23337;52.212;9.926;2023-04-29T09:14:21;11.60;;;10.47;;
37483;SDS011;23337;52.212;9.926;2023-04-29T09:16:48;10.63;;;9.43;;
37483;SDS011;23337;52.212;9.926;2023-04-29T09:19:30;11.37;;;10.27;;
37483;SDS011;23337;52.212;9.926;2023-04-29T09:21:56;11.77;;;10.00;;
37483;SDS011;23337;52.212;9.926;2023-04-29T09:24:26;11.27;;;9.37;;
37483;SDS011;23337;52.212;9.926;2023-04-29T09:26:52;11.27;;;9.23;;
37483;SDS011;23337;52.212;9.926;2023-04-29T09:29:19;11.47;;;9.83;;
37483;SDS011;23337;52.212;9.926;2023-04-29T09:31:46;10.50;;;9.40;;
37483;SDS011;23337;52.212;9.926;2023-04-29T09:34:12;10.47;;;9.37;;
37483;SDS011;23337;52.212;9.926;2023-04-29T09:39:13;11.27;;;9.73;;
37483;SDS011;23337;52.212;9.926;2023-04-29T09:41:40;10.47;;;9.37;;
37483;SDS011;23337;52.212;9.926;2023-04-29T09:44:07;10.73;;;9.73;;
37483;SDS011;23337;52.212;9.926;2023-04-29T09:46:33;11.13;;;9.47;;
37483;SDS011;23337;52.212;9.926;2023-04-29T09:49:01;10.23;;;9.13;;
37483;SDS011;23337;52.212;9.926;2023-04-29T09:51:27;9.37;;;8.40;;
37483;SDS011;23337;52.212;9.926;2023-04-29T09:53:56;9.63;;;8.73;;
37483;SDS011;23337;52.212;9.926;2023-04-29T09:56:22;12.33;;;8.87;;
37483;SDS011;23337;52.212;9.926;2023-04-29T09:58:48;9.87;;;8.97;;
37483;SDS011;23337;52.212;9.926;2023-04-29T10:01:14;8.97;;;8.03;;
37483;SDS011;23337;52.212;9.926;2023-04-29T10:03:43;9.80;;;7.87;;
37483;SDS011;23337;52.212;9.926;2023-04-29T10:06:10;9.50;;;8.60;;
37483;SDS011;23337;52.212;9.926;2023-04-29T10:08:36;10.03;;;8.37;;
37483;SDS011;23337;52.212;9.926;2023-04-29T10:11:05;12.13;;;8.90;;
37483;SDS011;23337;52.212;9.926;2023-04-29T10:13:32;9.13;;;8.20;;
37483;SDS011;23337;52.212;9.926;2023-04-29T10:18:34;10.57;;;8.17;;
37483;SDS011;23337;52.212;9.926;2023-04-29T10:21:06;10.87;;;8.57;;
37483;SDS011;23337;52.212;9.926;2023-04-29T10:23:35;9.57;;;8.53;;
37483;SDS011;23337;52.212;9.926;2023-04-29T10:26:02;10.53;;;8.70;;
37483;SDS011;23337;52.212;9.926;2023-04-29T10:28:31;9.63;;;8.63;;
37483;SDS011;23337;52.212;9.926;2023-04-29T10:30:59;11.43;;;9.27;;
37483;SDS011;23337;52.212;9.926;2023-04-29T10:33:32;9.90;;;8.93;;
37483;SDS011;23337;52.212;9.926;2023-04-29T10:35:58;9.20;;;8.37;;
37483;SDS011;23337;52.212;9.926;2023-04-29T10:38:27;10.20;;;9.20;;
37483;SDS011;23337;52.212;9.926;2023-04-29T10:40:54;10.00;;;8.87;;
37483;SDS011;23337;52.212;9.926;2023-04-29T10:43:24;9.43;;;8.43;;
37483;SDS011;23337;52.212;9.926;2023-04-29T10:46:15;10.23;;;9.23;;
37483;SDS011;23337;52.212;9.926;2023-04-29T10:48:36;12.80;;;10.40;;
37483;SDS011;23337;52.212;9.926;2023-04-29T10:51:02;10.13;;;9.17;;
37483;SDS011;23337;52.212;9.926;2023-04-29T10:53:29;11.60;;;9.77;;
37483;SDS011;23337;52.212;9.926;2023-04-29T10:55:56;13.17;;;10.17;;
37483;SDS011;23337;52.212;9.926;2023-04-29T10:58:39;11.03;;;9.83;;
37483;SDS011;23337;52.212;9.926;2023-04-29T11:01:06;11.23;;;10.10;;
37483;SDS011;23337;52.212;9.926;2023-04-29T11:03:53;12.60;;;9.80;;
37483;SDS011;23337;52.212;9.926;2023-04-29T11:06:25;11.57;;;9.80;;
37483;SDS011;23337;52.212;9.926;2023-04-29T11:14:11;13.13;;;10.10;;
37483;SDS011;23337;52.212;9.926;2023-04-29T11:16:45;12.43;;;10.00;;
37483;SDS011;23337;52.212;9.926;2023-04-29T11:19:13;11.53;;;10.43;;
37483;SDS011;23337;52.212;9.926;2023-04-29T11:21:39;13.40;;;10.50;;
37483;SDS011;23337;52.212;9.926;2023-04-29T11:24:05;11.27;;;10.17;;
37483;SDS011;23337;52.212;9.926;2023-04-29T11:26:34;12.07;;;10.30;;
37483;SDS011;23337;52.212;9.926;2023-04-29T11:29:00;11.93;;;10.10;;
37483;SDS011;23337;52.212;9.926;2023-04-29T11:31:30;11.27;;;9.77;;
37483;SDS011;23337;52.212;9.926;2023-04-29T11:33:56;11.33;;;10.17;;
37483;SDS011;23337;52.212;9.926;2023-04-29T11:36:22;12.43;;;9.13;;
37483;SDS011;23337;52.212;9.926;2023-04-29T11:38:48;11.37;;;10.03;;
37483;SDS011;23337;52.212;9.926;2023-04-29T11:41:15;9.80;;;8.80;;
37483;SDS011;23337;52.212;9.926;2023-04-29T11:43:40;10.10;;;8.63;;
37483;SDS011;23337;52.212;9.926;2023-04-29T11:46:11;9.90;;;8.90;;
37483;SDS011;23337;52.212;9.926;2023-04-29T11:48:44;10.13;;;9.07;;
37483;SDS011;23337;52.212;9.926;2023-04-29T11:51:10;11.73;;;8.80;;
37483;SDS011;23337;52.212;9.926;2023-04-29T11:53:36;9.17;;;8.27;;
37483;SDS011;23337;52.212;9.926;2023-04-29T11:56:02;9.13;;;8.23;;
37483;SDS011;23337;52.212;9.926;2023-04-29T11:58:28;12.83;;;9.63;;
37483;SDS011;23337;52.212;9.926;2023-04-29T12:00:54;10.47;;;8.93;;
37483;SDS011;23337;52.212;9.926;2023-04-29T12:03:22;10.97;;;9.07;;
37483;SDS011;23337;52.212;9.926;2023-04-29T12:05:52;7.23;;;6.53;;
37483;SDS011;23337;52.212;9.926;2023-04-29T12:08:25;7.23;;;6.30;;
37483;SDS011;23337;52.212;9.926;2023-04-29T12:10:51;7.13;;;5.93;;
37483;SDS011;23337;52.212;9.926;2023-04-29T12:13:18;8.63;;;7.00;;
37483;SDS011;23337;52.212;9.926;2023-04-29T12:15:44;9.20;;;7.37;;
37483;SDS011;23337;52.212;9.926;2023-04-29T12:18:11;7.87;;;7.07;;
37483;SDS011;23337;52.212;9.926;2023-04-29T12:20:37;8.77;;;7.57;;
37483;SDS011;23337;52.212;9.926;2023-04-29T12:23:19;8.33;;;7.50;;
37483;SDS011;23337;52.212;9.926;2023-04-29T12:25:52;8.77;;;7.83;;
37483;SDS011;23337;52.212;9.926;2023-04-29T12:28:18;7.77;;;6.97;;
37483;SDS011;23337;52.212;9.926;2023-04-29T12:30:45;10.47;;;6.77;;
37483;SDS011;23337;52.212;9.926;2023-04-29T12:33:14;9.37;;;6.57;;
37483;SDS011;23337;52.212;9.926;2023-04-29T12:35:40;7.90;;;6.73;;
37483;SDS011;23337;52.212;9.926;2023-04-29T12:38:06;7.67;;;6.97;;
37483;SDS011;23337;52.212;9.926;2023-04-29T12:40:32;8.40;;;7.20;;
37483;SDS011;23337;52.212;9.926;2023-04-29T12:43:05;7.40;;;6.67;;
37483;SDS011;23337;52.212;9.926;2023-04-29T12:45:32;7.77;;;6.37;;
37483;SDS011;23337;52.212;9.926;2023-04-29T12:47:59;7.83;;;6.67;;
37483;SDS011;23337;52.212;9.926;2023-04-29T12:52:57;9.00;;;7.47;;
37483;SDS011;23337;52.212;9.926;2023-04-29T12:55:23;7.37;;;6.63;;
37483;SDS011;23337;52.212;9.926;2023-04-29T12:57:49;9.17;;;7.30;;
37483;SDS011;23337;52.212;9.926;2023-04-29T13:00:16;8.63;;;7.13;;
37483;SDS011;23337;52.212;9.926;2023-04-29T13:02:44;8.60;;;6.80;;
37483;SDS011;23337;52.212;9.926;2023-04-29T13:05:10;9.57;;;7.30;;
37483;SDS011;23337;52.212;9.926;2023-04-29T13:07:36;7.17;;;6.47;;
37483;SDS011;23337;52.212;9.926;2023-04-29T13:10:03;9.03;;;6.63;;
37483;SDS011;23337;52.212;9.926;2023-04-29T13:12:30;7.97;;;6.67;;
37483;SDS011;23337;52.212;9.926;2023-04-29T13:14:56;8.60;;;7.07;;
37483;SDS011;23337;52.212;9.926;2023-04-29T13:17:22;7.97;;;6.23;;
37483;SDS011;23337;52.212;9.926;2023-04-29T13:19:48;7.40;;;6.63;;
37483;SDS011;23337;52.212;9.926;2023-04-29T13:22:14;11.33;;;7.20;;
37483;SDS011;23337;52.212;9.926;2023-04-29T13:24:40;7.17;;;6.47;;
37483;SDS011;23337;52.212;9.926;2023-04-29T13:27:06;6.27;;;5.67;;
37483;SDS011;23337;52.212;9.926;2023-04-29T13:29:33;8.93;;;5.70;;
37483;SDS011;23337;52.212;9.926;2023-04-29T13:31:59;6.07;;;5.53;;
37483;SDS011;23337;52.212;9.926;2023-04-29T13:34:25;6.37;;;5.77;;
37483;SDS011;23337;52.212;9.926;2023-04-29T13:36:50;6.10;;;5.03;;
37483;SDS011;23337;52.212;9.926;2023-04-29T13:39:16;6.70;;;5.77;;
37483;SDS011;23337;52.212;9.926;2023-04-29T13:41:43;6.80;;;5.67;;
37483;SDS011;23337;52.212;9.926;2023-04-29T13:44:10;6.10;;;5.07;;
37483;SDS011;23337;52.212;9.926;2023-04-29T13:46:36;7.27;;;6.33;;
37483;SDS011;23337;52.212;9.926;2023-04-29T13:49:02;6.27;;;5.20;;
37483;SDS011;23337;52.212;9.926;2023-04-29T13:51:28;5.70;;;5.00;;
37483;SDS011;23337;52.212;9.926;2023-04-29T13:53:55;6.17;;;5.23;;
37483;SDS011;23337;52.212;9.926;2023-04-29T13:56:21;5.60;;;4.93;;
37483;SDS011;23337;52.212;9.926;2023-04-29T13:58:49;5.70;;;5.10;;
37483;SDS011;23337;52.212;9.926;2023-04-29T14:01:15;8.30;;;4.50;;
37483;SDS011;23337;52.212;9.926;2023-04-29T14:03:41;6.00;;;5.30;;
37483;SDS011;23337;52.212;9.926;2023-04-29T14:06:08;6.40;;;5.00;;
37483;SDS011;23337;52.212;9.926;2023-04-29T14:08:34;5.23;;;4.70;;
37483;SDS011;23337;52.212;9.926;2023-04-29T14:11:00;5.70;;;4.77;;
37483;SDS011;23337;52.212;9.926;2023-04-29T14:13:26;4.53;;;4.13;;
37483;SDS011;23337;52.212;9.926;2023-04-29T14:15:53;4.93;;;4.40;;
37483;SDS011;23337;52.212;9.926;2023-04-29T14:18:20;5.37;;;4.30;;
37483;SDS011;23337;52.212;9.926;2023-04-29T14:20:46;7.47;;;4.60;;
37483;SDS011;23337;52.212;9.926;2023-04-29T14:23:12;7.70;;;5.00;;
37483;SDS011;23337;52.212;9.926;2023-04-29T14:25:38;4.57;;;4.17;;
37483;SDS011;23337;52.212;9.926;2023-04-29T14:28:04;5.77;;;5.13;;
37483;SDS011;23337;52.212;9.926;2023-04-29T14:30:30;4.93;;;4.47;;
37483;SDS011;23337;52.212;9.926;2023-04-29T14:32:56;7.93;;;5.00;;
37483;SDS011;23337;52.212;9.926;2023-04-29T14:35:22;6.40;;;4.77;;
37483;SDS011;23337;52.212;9.926;2023-04-29T14:37:48;6.03;;;4.57;;
37483;SDS011;23337;52.212;9.926;2023-04-29T14:40:14;7.10;;;4.90;;
37483;SDS011;23337;52.212;9.926;2023-04-29T14:42:40;6.00;;;4.73;;
37483;SDS011;23337;52.212;9.926;2023-04-29T14:45:06;6.73;;;5.53;;
37483;SDS011;23337;52.212;9.926;2023-04-29T14:47:32;7.10;;;5.50;;